Security, Texas
Current Conditions -  °F | °C
As of 4:15 PM on Thursday 23 Oct 2014 (Local Time) from K6R3 Reporting Station
Clear Clear  
Wind Chill: 77°   Ceiling: Unl
Heat Index: 79°   Visibility: 10mi
Dew Point: 58°   Wind: 3mph
Humidity: 53%   Direction: 30°NNE
Pressure: 30.08"   Gusts: NA
Location:  30.2945°N, 94.9711°W
Report Text: K6R3 232115Z AUTO 03003KT 10SM CLR 25/15 A3008 RMK AO2 T02500147
Loading
Personal Weather Stations






























Interactive Weather Map
Tropical Storm Tracking
New forecast layout! Learn more

10-Day Weather Forecast

Advertisements
Track Severe Weather on mobile